Time;durP1;ratioP1;P1;durP2;ratioP2;P2;SDS_P1;SDS_P2;PMS_P1;PMS_P2;Temp;Humidity;BMP_temperature;BMP_pressure;BME280_temperature;BME280_humidity;BME280_pressure;Samples;Min_cycle;Max_cycle;Signal;HPM_P1;HPM_P2
2021/11/25 00:01:49;;;;;;;;;478.75;439.00;6.90;62.60;;;;;;5054226;28;8769;-62
2021/11/25 00:04:16;;;;;;;;;508.80;460.80;7.00;61.90;;;;;;5054443;28;8760;-63
2021/11/25 00:06:41;;;;;;;;;535.20;479.60;7.00;62.30;;;;;;5053803;28;8792;-63
2021/11/25 00:09:07;;;;;;;;;535.50;485.50;7.00;62.10;;;;;;5054306;28;8788;-63
2021/11/25 00:11:33;;;;;;;;;532.25;480.25;7.00;62.00;;;;;;5053986;28;11547;-63
2021/11/25 00:14:00;;;;;;;;;517.75;465.00;6.70;62.60;;;;;;5054173;28;11557;-63
2021/11/25 00:16:25;;;;;;;;;495.25;432.75;6.50;63.80;;;;;;5054222;28;8866;-63
2021/11/25 00:18:51;;;;;;;;;447.75;383.50;6.60;63.70;;;;;;5054424;28;8780;-64
2021/11/25 00:21:17;;;;;;;;;333.25;307.25;6.90;63.00;;;;;;5054059;28;9579;-62
2021/11/25 00:23:44;;;;;;;;;268.50;242.50;7.10;62.80;;;;;;5054260;28;8784;-62
2021/11/25 00:26:10;;;;;;;;;384.00;357.00;7.00;63.30;;;;;;5054117;28;8788;-63
2021/11/25 00:28:36;;;;;;;;;381.25;347.75;7.00;62.70;;;;;;5054213;28;8788;-63
2021/11/25 00:31:03;;;;;;;;;440.50;383.00;6.90;62.70;;;;;;5054105;28;8787;-63
2021/11/25 00:33:30;;;;;;;;;499.75;427.25;7.00;62.50;;;;;;5054339;28;8776;-62
2021/11/25 00:35:55;;;;;;;;;538.50;478.75;7.00;62.10;;;;;;5053903;28;8784;-62
2021/11/25 00:38:21;;;;;;;;;561.25;495.75;6.80;62.10;;;;;;5053758;28;8780;-63
2021/11/25 00:40:47;;;;;;;;;516.00;452.80;6.90;61.90;;;;;;5054120;28;8781;-63
2021/11/25 00:43:13;;;;;;;;;509.20;458.20;6.80;61.90;;;;;;5053808;28;8775;-62
2021/11/25 00:45:39;;;;;;;;;522.25;478.50;6.90;61.50;;;;;;5054039;28;8875;-62
2021/11/25 00:48:05;;;;;;;;;544.00;480.75;6.70;62.00;;;;;;5053787;28;8977;-62
2021/11/25 00:50:31;;;;;;;;;598.40;520.00;6.80;61.70;;;;;;5053500;28;12313;-61
2021/11/25 00:52:57;;;;;;;;;568.40;502.80;6.90;61.50;;;;;;5055201;28;8744;-61
2021/11/25 00:55:23;;;;;;;;;574.75;499.50;6.70;61.90;;;;;;5057585;28;8795;-62
2021/11/25 00:57:49;;;;;;;;;541.25;479.00;6.80;61.80;;;;;;5057526;28;8777;-63
2021/11/25 01:00:19;;;;;;;;;598.40;524.80;6.60;61.90;;;;;;5057398;28;8784;-62
2021/11/25 01:02:45;;;;;;;;;560.40;495.40;6.90;61.20;;;;;;5057388;28;8793;-62
2021/11/25 01:05:14;;;;;;;;;532.80;483.80;6.60;62.10;;;;;;5057813;28;8907;-63
2021/11/25 01:07:40;;;;;;;;;491.00;440.40;6.70;61.80;;;;;;5057472;28;8777;-62
2021/11/25 01:10:08;;;;;;;;;473.20;417.00;6.40;62.10;;;;;;5057586;28;8859;-63
2021/11/25 01:12:35;;;;;;;;;414.50;357.50;6.30;62.30;;;;;;5057429;28;8789;-62
2021/11/25 01:15:01;;;;;;;;;299.25;276.00;6.20;62.80;;;;;;5057688;28;8760;-62
2021/11/25 01:17:27;;;;;;;;;262.75;242.50;6.00;63.10;;;;;;5057259;28;8831;-63
2021/11/25 01:19:53;;;;;;;;;258.75;221.50;5.90;64.10;;;;;;5057578;28;8804;-63
2021/11/25 01:22:19;;;;;;;;;228.50;207.50;6.10;63.80;;;;;;5057377;28;8817;-61
2021/11/25 01:24:45;;;;;;;;;233.50;223.50;6.20;63.10;;;;;;5057287;28;8780;-62
2021/11/25 01:27:10;;;;;;;;;211.00;202.50;6.20;62.70;;;;;;5057155;28;8796;-61
2021/11/25 01:29:36;;;;;;;;;241.75;214.75;6.10;62.80;;;;;;5057225;28;8769;-62
2021/11/25 01:32:03;;;;;;;;;210.75;192.00;6.00;63.20;;;;;;5057382;28;8780;-61
2021/11/25 01:34:28;;;;;;;;;212.25;193.75;6.00;63.50;;;;;;5057324;28;9500;-63
2021/11/25 01:36:54;;;;;;;;;201.25;192.50;6.00;63.50;;;;;;5057182;28;8804;-63
2021/11/25 01:39:20;;;;;;;;;210.25;193.75;6.20;62.90;;;;;;5057203;28;8765;-61
2021/11/25 01:41:47;;;;;;;;;183.75;173.25;6.00;64.10;;;;;;5057199;28;8834;-62
2021/11/25 01:44:14;;;;;;;;;179.50;174.75;6.20;62.90;;;;;;5056921;28;8769;-61
2021/11/25 01:46:40;;;;;;;;;183.00;174.50;6.10;62.50;;;;;;5057104;28;9465;-62
2021/11/25 01:49:06;;;;;;;;;189.50;178.00;6.10;62.40;;;;;;5056589;28;8816;-62
2021/11/25 01:51:32;;;;;;;;;191.50;180.50;6.10;62.80;;;;;;5056885;28;8777;-63
2021/11/25 01:53:58;;;;;;;;;183.75;175.50;6.10;62.80;;;;;;5057098;28;8752;-62
2021/11/25 01:56:24;;;;;;;;;204.75;182.75;5.90;63.10;;;;;;5056835;28;8812;-62
2021/11/25 01:58:50;;;;;;;;;208.75;191.00;5.60;63.90;;;;;;5056646;28;8768;-62
2021/11/25 02:01:20;;;;;;;;;209.75;200.50;5.50;64.70;;;;;;5056856;28;8838;-62
2021/11/25 02:03:48;;;;;;;;;217.75;200.25;5.60;64.10;;;;;;5055631;28;8760;-61
2021/11/25 02:06:14;;;;;;;;;189.75;184.00;5.40;64.90;;;;;;5056431;28;8791;-61
2021/11/25 02:08:41;;;;;;;;;230.75;218.00;5.70;64.30;;;;;;5056699;28;8761;-61
2021/11/25 02:11:07;;;;;;;;;215.50;206.75;5.80;63.70;;;;;;5056414;28;8764;-62
2021/11/25 02:13:33;;;;;;;;;237.25;221.25;5.60;64.00;;;;;;5056606;28;8764;-62
2021/11/25 02:15:59;;;;;;;;;236.00;215.50;5.50;64.30;;;;;;5056182;28;8871;-61
2021/11/25 02:18:26;;;;;;;;;243.25;218.75;5.50;65.00;;;;;;5056371;28;8783;-62
2021/11/25 02:21:01;;;;;;;;;223.75;198.50;5.60;64.90;;;;;;5056504;28;8812;-60
2021/11/25 02:23:27;;;;;;;;;204.00;191.25;5.80;64.20;;;;;;5056231;28;8779;-62
2021/11/25 02:25:55;;;;;;;;;218.50;201.75;5.60;64.40;;;;;;5056423;28;8757;-61
2021/11/25 02:28:28;;;;;;;;;220.25;193.50;5.50;65.00;;;;;;5056130;28;8761;-62
2021/11/25 02:30:54;;;;;;;;;222.00;211.00;5.60;64.20;;;;;;5056043;28;8777;-61
2021/11/25 02:33:20;;;;;;;;;207.75;194.25;5.50;64.60;;;;;;5056280;28;8760;-63
2021/11/25 02:35:46;;;;;;;;;235.75;206.50;5.20;66.50;;;;;;5055875;28;8899;-62
2021/11/25 02:38:13;;;;;;;;;216.75;203.25;5.50;65.70;;;;;;5055142;28;9470;-63
2021/11/25 02:40:51;;;;;;;;;243.00;224.75;5.80;64.30;;;;;;5055892;28;8749;-62
2021/11/25 02:43:20;;;;;;;;;186.25;184.50;5.90;64.10;;;;;;5055823;28;8745;-62
2021/11/25 02:45:50;;;;;;;;;234.75;215.75;6.00;63.70;;;;;;5056132;28;8765;-63
2021/11/25 02:48:18;;;;;;;;;214.00;205.25;5.90;63.90;;;;;;5055601;28;8894;-61
2021/11/25 02:50:44;;;;;;;;;231.75;205.00;5.70;64.60;;;;;;5056009;28;8838;-61
2021/11/25 02:53:11;;;;;;;;;223.75;201.25;5.70;64.10;;;;;;5055839;28;8767;-62
2021/11/25 02:55:37;;;;;;;;;206.25;194.50;5.60;64.80;;;;;;5055526;28;8877;-61
2021/11/25 02:58:04;;;;;;;;;195.50;172.50;5.80;64.50;;;;;;5055603;28;8757;-62
2021/11/25 03:00:34;;;;;;;;;207.25;196.25;5.70;64.80;;;;;;5054439;28;8784;-61
2021/11/25 03:03:09;;;;;;;;;207.00;198.75;5.40;65.60;;;;;;5055689;28;8867;-62
2021/11/25 03:05:37;;;;;;;;;231.75;214.75;5.20;66.40;;;;;;5055401;28;8772;-62
2021/11/25 03:08:05;;;;;;;;;193.25;187.00;5.40;66.10;;;;;;5055596;28;8771;-62
2021/11/25 03:10:53;;;;;;;;;184.25;160.75;5.60;64.90;;;;;;5055285;28;8765;-62
2021/11/25 03:13:20;;;;;;;;;199.50;181.25;5.70;64.90;;;;;;5054282;28;8779;-61
2021/11/25 03:15:46;;;;;;;;;182.00;174.25;5.40;66.10;;;;;;5054975;28;8779;-62
2021/11/25 03:18:13;;;;;;;;;192.75;173.00;5.20;66.80;;;;;;5055376;28;8931;-62
2021/11/25 03:20:43;;;;;;;;;178.25;169.75;4.90;67.60;;;;;;5055298;28;8905;-61
2021/11/25 03:23:10;;;;;;;;;174.25;154.00;4.60;70.50;;;;;;5055310;28;8805;-61
2021/11/25 03:25:37;;;;;;;;;162.75;153.75;5.10;68.10;;;;;;5055030;28;8755;-62
2021/11/25 03:28:04;;;;;;;;;165.00;156.00;5.20;67.50;;;;;;5055242;28;8755;-62
2021/11/25 03:30:31;;;;;;;;;163.25;155.75;5.00;68.20;;;;;;5054988;28;8755;-63
2021/11/25 03:32:57;;;;;;;;;162.50;153.00;5.00;68.40;;;;;;5054828;28;8755;-60
2021/11/25 03:35:23;;;;;;;;;160.00;153.25;4.80;69.10;;;;;;5054944;28;8767;-61
2021/11/25 03:37:49;;;;;;;;;164.50;154.25;5.10;68.30;;;;;;5055052;28;8763;-61
2021/11/25 03:40:15;;;;;;;;;159.25;154.25;5.40;67.50;;;;;;5054734;28;8755;-62
2021/11/25 03:42:40;;;;;;;;;170.50;158.75;5.20;68.00;;;;;;5054905;28;8798;-62
2021/11/25 03:45:08;;;;;;;;;141.00;133.75;5.40;67.40;;;;;;5054738;28;8790;-62
2021/11/25 03:47:34;;;;;;;;;171.25;161.25;5.50;67.30;;;;;;5054621;28;8778;-62
2021/11/25 03:50:00;;;;;;;;;167.25;151.75;5.20;67.90;;;;;;5054453;28;8853;-62
2021/11/25 03:52:26;;;;;;;;;169.75;159.00;5.20;68.40;;;;;;5054761;28;8779;-62
2021/11/25 03:54:55;;;;;;;;;181.00;160.75;4.90;69.50;;;;;;5054559;28;9471;-62
2021/11/25 03:57:25;;;;;;;;;184.50;171.50;4.90;70.30;;;;;;5054470;28;8821;-61
2021/11/25 03:59:52;;;;;;;;;167.25;158.75;5.00;70.10;;;;;;5054718;28;9494;-61
2021/11/25 04:02:20;;;;;;;;;176.25;167.75;5.10;70.40;;;;;;5054658;28;9449;-60
2021/11/25 04:04:46;;;;;;;;;167.00;156.25;5.40;68.40;;;;;;5054671;28;8763;-62
2021/11/25 04:07:12;;;;;;;;;171.00;161.75;5.00;69.30;;;;;;5054345;28;8779;-61
2021/11/25 04:09:39;;;;;;;;;154.25;148.50;4.80;69.70;;;;;;5054380;28;8771;-60
2021/11/25 04:12:05;;;;;;;;;174.75;162.75;4.90;69.10;;;;;;5054543;28;8763;-61
2021/11/25 04:14:32;;;;;;;;;176.75;161.25;4.80;69.10;;;;;;5054215;28;8774;-61
2021/11/25 04:16:58;;;;;;;;;159.25;155.00;4.80;68.70;;;;;;5054358;28;8860;-62
2021/11/25 04:19:25;;;;;;;;;153.75;142.75;5.10;67.90;;;;;;5054144;28;8787;-61
2021/11/25 04:21:52;;;;;;;;;163.50;152.50;5.30;67.10;;;;;;5054397;28;8817;-61
2021/11/25 04:24:18;;;;;;;;;159.00;148.00;5.30;66.40;;;;;;5054386;28;8751;-62
2021/11/25 04:26:43;;;;;;;;;137.00;128.00;4.90;67.50;;;;;;5054085;28;8936;-60
2021/11/25 04:29:10;;;;;;;;;152.50;142.00;4.90;67.90;;;;;;5057813;28;8767;-58
2021/11/25 04:37:05;;;;;;;;;143.50;137.75;4.40;69.70;;;;;;5058137;28;9397;-61
2021/11/25 04:39:31;;;;;;;;;157.00;152.50;4.40;70.10;;;;;;5058434;28;8874;-61
2021/11/25 04:41:56;;;;;;;;;157.75;150.25;4.50;70.10;;;;;;5058387;28;8763;-60
2021/11/25 04:44:22;;;;;;;;;148.50;141.75;4.80;68.70;;;;;;5057996;28;8897;-60
2021/11/25 04:46:48;;;;;;;;;150.25;139.00;4.80;68.80;;;;;;5057955;28;8779;-61
2021/11/25 04:49:15;;;;;;;;;141.00;137.25;4.90;68.20;;;;;;5057704;28;8811;-61
2021/11/25 04:51:40;;;;;;;;;168.50;162.25;5.00;67.80;;;;;;5057944;28;8778;-61
2021/11/25 04:54:07;;;;;;;;;168.25;155.00;4.80;68.00;;;;;;5057860;28;8868;-60
2021/11/25 04:56:33;;;;;;;;;158.00;147.50;4.60;68.90;;;;;;5057645;28;8802;-60
2021/11/25 04:58:59;;;;;;;;;172.50;159.00;4.60;69.30;;;;;;5058050;28;8767;-61
2021/11/25 05:01:25;;;;;;;;;176.75;168.00;4.90;67.60;;;;;;5057644;28;9421;-60
2021/11/25 05:03:51;;;;;;;;;169.00;159.75;4.90;67.90;;;;;;5057981;28;8827;-61
2021/11/25 05:06:17;;;;;;;;;169.50;155.25;5.20;66.90;;;;;;5057595;28;9444;-61
2021/11/25 05:08:43;;;;;;;;;164.75;156.25;5.20;66.30;;;;;;5057584;28;8770;-61
2021/11/25 05:11:09;;;;;;;;;162.25;149.50;5.20;66.50;;;;;;5057541;28;8775;-61
2021/11/25 05:13:35;;;;;;;;;132.75;126.25;4.50;68.50;;;;;;5057770;28;9409;-60
2021/11/25 05:16:03;;;;;;;;;170.00;161.75;4.70;68.50;;;;;;5057355;28;8807;-62
2021/11/25 05:18:29;;;;;;;;;159.75;153.75;5.00;67.20;;;;;;5057390;28;8766;-61
2021/11/25 05:20:55;;;;;;;;;168.25;156.50;5.30;66.30;;;;;;5057731;28;8795;-60
2021/11/25 05:23:21;;;;;;;;;172.25;164.25;5.10;66.00;;;;;;5057336;28;9541;-61
2021/11/25 05:25:47;;;;;;;;;154.75;141.00;4.90;66.50;;;;;;5057351;28;8797;-61
2021/11/25 05:28:13;;;;;;;;;189.50;174.50;4.70;67.60;;;;;;5057477;28;8798;-61
2021/11/25 05:30:39;;;;;;;;;172.50;161.25;4.90;67.00;;;;;;5057129;28;8775;-61
2021/11/25 05:33:05;;;;;;;;;187.25;176.25;5.10;66.70;;;;;;5057081;28;8905;-61
2021/11/25 05:35:31;;;;;;;;;186.75;172.00;5.00;67.20;;;;;;5057265;28;8770;-60
2021/11/25 05:37:58;;;;;;;;;197.50;170.25;4.70;67.70;;;;;;5056840;28;8794;-60
2021/11/25 05:40:24;;;;;;;;;182.75;176.50;4.30;69.80;;;;;;5052269;28;8782;-60
2021/11/25 05:42:49;;;;;;;;;189.50;176.00;4.10;70.40;;;;;;5056517;28;8875;-61
2021/11/25 05:45:17;;;;;;;;;180.50;173.50;3.60;72.90;;;;;;5056354;28;9465;-60
2021/11/25 05:47:45;;;;;;;;;182.00;173.50;3.70;73.30;;;;;;5055940;28;8782;-60
2021/11/25 05:50:18;;;;;;;;;176.50;170.50;3.90;73.00;;;;;;5051676;28;8837;-59
2021/11/25 05:52:47;;;;;;;;;189.00;176.75;4.30;70.40;;;;;;5039652;28;9452;-59
2021/11/25 05:55:13;;;;;;;;;178.00;167.50;4.70;68.80;;;;;;5056990;28;8814;-62
2021/11/25 05:57:39;;;;;;;;;179.00;164.50;4.60;68.70;;;;;;5056593;28;8806;-61
2021/11/25 06:00:10;;;;;;;;;204.75;188.00;4.70;69.00;;;;;;5054573;28;8794;-65
2021/11/25 06:02:40;;;;;;;;;226.25;212.00;4.60;68.80;;;;;;5055539;28;8783;-62
2021/11/25 06:05:07;;;;;;;;;205.00;196.50;4.80;67.70;;;;;;5056365;28;8809;-65
2021/11/25 06:07:33;;;;;;;;;195.75;179.75;5.00;66.80;;;;;;5055288;28;8885;-63
2021/11/25 06:09:58;;;;;;;;;202.75;191.00;5.20;65.80;;;;;;5056104;28;8874;-63
2021/11/25 06:12:24;;;;;;;;;227.25;212.00;5.40;64.80;;;;;;5055687;28;8767;-63
2021/11/25 06:14:50;;;;;;;;;230.00;218.50;5.40;64.30;;;;;;5056057;28;8991;-61
2021/11/25 06:17:16;;;;;;;;;225.50;218.75;5.20;63.80;;;;;;5056138;28;8806;-62
2021/11/25 06:19:42;;;;;;;;;232.25;219.75;5.00;65.20;;;;;;5056137;28;8900;-63
2021/11/25 06:22:08;;;;;;;;;250.00;236.50;5.20;64.30;;;;;;5056161;28;8782;-64
2021/11/25 06:24:33;;;;;;;;;239.00;230.25;5.30;63.90;;;;;;5056009;28;8767;-65
2021/11/25 06:26:59;;;;;;;;;245.50;235.00;5.40;63.40;;;;;;5056119;28;8879;-65
2021/11/25 06:29:25;;;;;;;;;249.25;237.00;5.60;62.90;;;;;;5056018;28;8759;-64
2021/11/25 06:31:52;;;;;;;;;247.25;233.25;5.50;62.50;;;;;;5055970;28;8786;-63
2021/11/25 06:34:18;;;;;;;;;253.25;234.50;5.60;62.90;;;;;;5056015;28;8856;-64
2021/11/25 06:36:43;;;;;;;;;225.50;217.50;5.60;62.80;;;;;;5056013;28;8783;-63
2021/11/25 06:39:09;;;;;;;;;237.00;228.00;5.40;63.40;;;;;;5056073;28;8824;-64
2021/11/25 06:41:36;;;;;;;;;251.25;231.50;5.40;64.40;;;;;;5056069;28;8833;-65
2021/11/25 06:44:01;;;;;;;;;223.75;204.25;5.50;63.70;;;;;;5056010;28;8807;-63
2021/11/25 06:46:27;;;;;;;;;264.00;242.75;5.60;63.50;;;;;;5055724;28;8775;-63
2021/11/25 06:48:53;;;;;;;;;259.75;239.00;5.60;63.80;;;;;;5055664;28;8795;-63
2021/11/25 06:51:19;;;;;;;;;246.75;234.50;5.80;63.10;;;;;;5054769;28;8842;-64
2021/11/25 06:53:46;;;;;;;;;242.50;233.00;6.10;62.20;;;;;;5055562;28;8891;-65
2021/11/25 06:56:12;;;;;;;;;253.00;242.00;6.20;61.30;;;;;;5055341;28;8929;-64
2021/11/25 06:58:38;;;;;;;;;281.75;260.75;5.70;62.20;;;;;;5055525;28;8755;-65
2021/11/25 07:01:07;;;;;;;;;270.25;257.25;5.60;63.50;;;;;;5055358;28;9478;-64
2021/11/25 07:03:34;;;;;;;;;307.00;274.50;5.50;63.60;;;;;;5055542;28;9441;-66
2021/11/25 07:06:01;;;;;;;;;255.75;233.50;5.40;64.20;;;;;;5055632;28;8856;-66
2021/11/25 07:08:27;;;;;;;;;297.50;273.00;5.50;64.10;;;;;;5055375;28;8825;-66
2021/11/25 07:10:53;;;;;;;;;287.00;265.75;5.70;63.60;;;;;;5055291;28;8797;-62
2021/11/25 07:13:19;;;;;;;;;279.50;256.25;5.60;64.00;;;;;;5055439;28;8786;-64
2021/11/25 07:15:45;;;;;;;;;308.50;285.50;5.70;63.70;;;;;;5055368;28;8778;-70
2021/11/25 07:18:11;;;;;;;;;288.00;264.75;5.90;62.90;;;;;;5055457;28;8767;-70
2021/11/25 07:20:37;;;;;;;;;322.50;299.75;6.00;62.40;;;;;;5055387;28;8821;-71
2021/11/25 07:23:02;;;;;;;;;321.75;303.00;6.20;61.90;;;;;;5055291;28;9452;-71
2021/11/25 07:25:28;;;;;;;;;286.00;270.25;6.30;61.60;;;;;;5055310;28;8875;-68
2021/11/25 07:27:54;;;;;;;;;321.25;295.50;5.80;62.90;;;;;;5054984;28;9466;-69
2021/11/25 07:30:20;;;;;;;;;322.50;284.75;5.50;64.10;;;;;;5055143;28;8783;-69
2021/11/25 07:32:47;;;;;;;;;316.00;286.25;5.40;65.10;;;;;;5053890;28;8787;-69
2021/11/25 07:35:13;;;;;;;;;313.00;293.25;5.70;64.10;;;;;;5055097;28;8785;-67
2021/11/25 07:37:39;;;;;;;;;317.00;303.00;6.10;63.00;;;;;;5054718;28;8783;-69
2021/11/25 07:40:08;;;;;;;;;288.75;270.00;6.20;62.70;;;;;;5054717;28;8860;-64
2021/11/25 07:42:33;;;;;;;;;294.50;280.00;6.40;61.90;;;;;;5054801;28;8755;-65
2021/11/25 07:45:00;;;;;;;;;277.00;251.50;6.00;62.60;;;;;;5054599;28;8825;-62
2021/11/25 07:47:37;;;;;;;;;293.00;275.50;6.30;62.30;;;;;;5054579;28;8779;-64
2021/11/25 07:50:06;;;;;;;;;284.00;264.00;6.30;62.10;;;;;;5054538;28;8847;-65
2021/11/25 07:52:32;;;;;;;;;288.25;254.50;6.40;61.90;;;;;;5054394;28;8800;-65
2021/11/25 07:54:58;;;;;;;;;269.50;252.75;6.70;61.70;;;;;;5054515;28;8832;-65
2021/11/25 07:57:26;;;;;;;;;255.00;243.00;7.00;61.00;;;;;;5054649;28;8825;-61
2021/11/25 07:59:52;;;;;;;;;294.75;271.75;6.90;60.90;;;;;;5054386;28;8913;-59
2021/11/25 08:02:19;;;;;;;;;298.00;273.25;6.90;61.00;;;;;;5054329;28;8751;-60
2021/11/25 08:04:46;;;;;;;;;290.50;264.00;7.20;60.80;;;;;;5054388;28;8771;-61
2021/11/25 08:07:12;;;;;;;;;305.25;286.25;7.20;61.10;;;;;;5054359;28;8789;-60
2021/11/25 08:09:37;;;;;;;;;317.25;292.25;7.20;61.20;;;;;;5054194;28;8787;-59
2021/11/25 08:12:04;;;;;;;;;314.25;273.00;7.20;61.00;;;;;;5054247;28;8775;-61
2021/11/25 08:14:30;;;;;;;;;293.75;260.75;7.10;61.50;;;;;;5054223;28;8787;-62
2021/11/25 08:16:59;;;;;;;;;279.00;254.50;7.10;61.70;;;;;;5054319;28;8798;-62
2021/11/25 08:19:28;;;;;;;;;320.75;300.00;6.90;62.40;;;;;;5054455;28;8811;-65
2021/11/25 08:21:54;;;;;;;;;331.75;289.50;7.20;62.00;;;;;;5054495;28;8801;-67
2021/11/25 08:24:20;;;;;;;;;335.75;308.50;7.20;62.30;;;;;;5053185;28;8790;-67
2021/11/25 08:26:46;;;;;;;;;334.50;289.50;7.40;62.70;;;;;;5054544;28;8779;-66
2021/11/25 08:29:11;;;;;;;;;329.00;304.00;7.20;62.30;;;;;;5054356;28;9464;-67
2021/11/25 08:31:37;;;;;;;;;339.50;308.25;7.00;62.70;;;;;;5054351;28;8775;-65
2021/11/25 08:34:04;;;;;;;;;345.75;308.00;7.00;62.90;;;;;;5054082;28;8755;-67
2021/11/25 08:36:30;;;;;;;;;332.00;310.00;7.20;62.90;;;;;;5054045;28;9461;-67
2021/11/25 08:38:57;;;;;;;;;342.50;298.00;7.10;62.80;;;;;;5052972;28;8929;-65
2021/11/25 08:41:25;;;;;;;;;343.00;318.00;7.00;63.60;;;;;;5054277;28;9491;-66
2021/11/25 08:43:51;;;;;;;;;314.00;285.25;7.30;63.10;;;;;;5054009;28;8778;-66
2021/11/25 08:46:17;;;;;;;;;291.00;273.75;7.40;63.00;;;;;;5053994;28;8774;-65
2021/11/25 08:48:43;;;;;;;;;319.75;293.75;7.50;62.50;;;;;;5053960;28;8817;-66
2021/11/25 08:51:09;;;;;;;;;301.75;279.50;7.60;62.30;;;;;;5054273;28;8811;-66
2021/11/25 08:53:35;;;;;;;;;316.50;302.25;7.70;62.20;;;;;;5054156;28;9687;-65
2021/11/25 08:56:01;;;;;;;;;313.00;299.50;7.70;62.30;;;;;;5053672;28;8795;-70
2021/11/25 08:58:28;;;;;;;;;301.50;286.50;7.80;62.20;;;;;;5053970;28;9689;-70
2021/11/25 09:00:54;;;;;;;;;311.25;283.25;8.00;61.40;;;;;;5053751;28;8783;-69
2021/11/25 09:03:20;;;;;;;;;340.00;306.75;7.90;62.00;;;;;;5054069;28;8771;-69
2021/11/25 09:05:46;;;;;;;;;343.75;324.25;8.00;62.00;;;;;;5054021;28;8862;-70
2021/11/25 09:08:12;;;;;;;;;355.25;334.00;7.90;62.20;;;;;;5053631;28;8799;-68
2021/11/25 09:10:38;;;;;;;;;358.50;314.50;7.50;63.70;;;;;;5053685;28;8852;-69
2021/11/25 09:13:05;;;;;;;;;352.00;315.25;7.60;63.60;;;;;;5054042;28;8778;-69
2021/11/25 09:15:33;;;;;;;;;292.75;275.75;7.30;65.70;;;;;;5057938;28;9581;-70
2021/11/25 09:18:00;;;;;;;;;372.75;325.25;7.20;65.80;;;;;;5056175;28;8890;-72
2021/11/25 09:20:31;;;;;;;;;345.50;306.75;7.40;65.30;;;;;;5056225;28;8818;-64
2021/11/25 09:22:58;;;;;;;;;349.25;315.25;7.90;63.90;;;;;;5057292;28;8795;-68
2021/11/25 09:25:24;;;;;;;;;330.50;300.25;8.50;61.90;;;;;;5057354;28;8794;-69
2021/11/25 09:27:50;;;;;;;;;340.25;305.75;8.70;62.10;;;;;;5057267;28;8786;-69
2021/11/25 09:30:17;;;;;;;;;362.50;326.50;8.90;60.50;;;;;;5056813;28;8874;-71
2021/11/25 09:32:43;;;;;;;;;341.75;299.00;8.90;60.30;;;;;;5055734;28;8777;-70
2021/11/25 09:35:09;;;;;;;;;320.75;299.50;9.10;60.20;;;;;;5055680;28;8779;-71
2021/11/25 09:37:35;;;;;;;;;377.75;338.25;9.00;59.90;;;;;;5053114;28;8805;-66
2021/11/25 09:40:01;;;;;;;;;342.00;305.00;9.20;59.70;;;;;;5055723;28;8775;-69
2021/11/25 09:42:26;;;;;;;;;358.75;328.00;9.50;59.20;;;;;;5055717;28;8777;-66
2021/11/25 09:44:52;;;;;;;;;341.75;318.25;9.80;58.40;;;;;;5055363;28;8847;-64
2021/11/25 09:47:18;;;;;;;;;390.75;351.50;10.00;58.00;;;;;;5055337;28;8768;-66
2021/11/25 09:49:45;;;;;;;;;368.00;334.25;10.10;57.60;;;;;;5056255;28;8819;-64
2021/11/25 09:52:11;;;;;;;;;370.75;327.50;10.00;58.00;;;;;;5056463;28;8779;-63
2021/11/25 09:54:37;;;;;;;;;323.75;297.25;10.40;57.70;;;;;;5056121;28;8770;-64
2021/11/25 09:57:04;;;;;;;;;252.75;228.50;10.40;57.00;;;;;;5055540;28;8896;-65
2021/11/25 09:59:29;;;;;;;;;208.25;198.75;10.00;58.80;;;;;;5056188;28;8771;-66
2021/11/25 10:01:55;;;;;;;;;227.25;203.25;9.50;60.80;;;;;;5054816;28;8832;-66
2021/11/25 10:04:21;;;;;;;;;204.75;188.75;8.90;62.70;;;;;;5056503;28;8768;-65
2021/11/25 10:06:53;;;;;;;;;192.75;173.00;8.60;65.10;;;;;;5056745;28;8768;-65
2021/11/25 10:09:36;;;;;;;;;182.00;162.25;8.60;66.10;;;;;;5056653;28;8886;-65
2021/11/25 10:12:32;;;;;;;;;175.25;158.50;9.20;63.80;;;;;;5056459;28;8853;-65
2021/11/25 10:15:00;;;;;;;;;158.50;142.25;9.90;61.30;;;;;;5056625;28;9419;-66
2021/11/25 10:17:46;;;;;;;;;167.00;158.25;9.90;61.30;;;;;;5056210;28;8812;-66
2021/11/25 10:20:15;;;;;;;;;169.50;155.00;9.40;62.30;;;;;;5056427;28;8821;-66
2021/11/25 10:23:01;;;;;;;;;153.00;139.50;9.00;63.40;;;;;;5056223;28;8765;-65
2021/11/25 10:25:48;;;;;;;;;178.50;159.50;9.20;62.90;;;;;;5055360;28;8757;-67
2021/11/25 10:28:29;;;;;;;;;187.00;167.75;8.70;64.90;;;;;;5055429;28;8853;-68
2021/11/25 10:31:01;;;;;;;;;169.50;155.50;8.80;65.10;;;;;;5056053;28;8926;-66
2021/11/25 10:33:31;;;;;;;;;169.25;161.50;8.40;65.80;;;;;;5056343;28;8777;-67
2021/11/25 10:38:57;;;;;;;;;194.00;171.50;8.90;63.80;;;;;;5056263;28;8796;-67
2021/11/25 10:41:24;;;;;;;;;178.75;178.75;9.60;61.30;;;;;;5055652;28;8801;-67
2021/11/25 10:44:08;;;;;;;;;171.50;168.50;9.90;60.50;;;;;;5055219;28;8876;-66
2021/11/25 10:46:43;;;;;;;;;185.50;171.00;9.90;59.80;;;;;;5054345;28;8777;-68
2021/11/25 10:49:13;;;;;;;;;185.75;167.25;10.00;59.80;;;;;;5054102;28;8873;-66
2021/11/25 10:51:44;;;;;;;;;192.25;181.00;10.20;59.20;;;;;;5052434;28;8835;-67
2021/11/25 10:54:17;;;;;;;;;185.75;176.50;10.30;59.20;;;;;;5041308;28;8767;-66
2021/11/25 10:56:47;;;;;;;;;189.75;182.50;10.40;59.00;;;;;;5052636;28;8887;-66
2021/11/25 10:59:15;;;;;;;;;201.25;189.00;10.50;58.70;;;;;;5053707;28;8780;-66
2021/11/25 11:01:50;;;;;;;;;224.00;202.50;10.60;57.80;;;;;;5054257;28;8767;-66
2021/11/25 11:04:17;;;;;;;;;213.75;204.25;10.80;57.10;;;;;;5054339;28;8906;-66
2021/11/25 11:06:45;;;;;;;;;214.50;203.00;10.80;57.20;;;;;;5051906;28;8803;-64
2021/11/25 11:09:34;;;;;;;;;223.75;203.25;10.90;56.60;;;;;;5054383;28;9514;-64
2021/11/25 11:12:19;;;;;;;;;225.50;213.25;11.10;56.40;;;;;;5053754;28;8800;-64
2021/11/25 11:14:53;;;;;;;;;232.75;217.00;11.00;57.10;;;;;;5053653;28;8779;-61
2021/11/25 11:17:46;;;;;;;;;240.00;225.50;10.70;57.80;;;;;;5053895;28;8810;-61
2021/11/25 11:20:20;;;;;;;;;260.50;246.25;10.90;57.40;;;;;;5053439;28;8814;-61
2021/11/25 11:37:03;;;;;;;;;245.75;222.75;10.10;60.00;;;;;;5066852;28;13527;-69
2021/11/25 11:39:31;;;;;;;;;228.75;206.25;11.10;59.50;;;;;;5070988;28;8783;-69
2021/11/25 11:42:02;;;;;;;;;230.25;209.00;11.40;57.90;;;;;;5071196;28;8890;-70
2021/11/25 11:44:28;;;;;;;;;218.00;203.75;11.60;57.70;;;;;;5071580;28;8794;-67
2021/11/25 11:47:01;;;;;;;;;228.00;210.00;12.00;56.60;;;;;;5071253;28;8788;-67
2021/11/25 11:49:28;;;;;;;;;225.00;204.00;12.60;55.80;;;;;;5071307;28;8779;-67
2021/11/25 11:52:19;;;;;;;;;224.25;205.00;13.50;53.10;;;;;;5071479;28;9484;-68
2021/11/25 12:06:52;;;;;;;;;173.75;161.75;16.40;45.20;;;;;;5085648;28;14314;-71
2021/11/25 12:09:23;;;;;;;;;187.50;182.50;21.40;35.40;;;;;;5088942;28;8785;-69
2021/11/25 12:11:55;;;;;;;;;212.25;207.75;22.50;33.40;;;;;;5090503;28;8842;-68
2021/11/25 12:14:25;;;;;;;;;201.50;195.75;23.80;30.90;;;;;;5086752;28;8792;-69
2021/11/25 12:16:58;;;;;;;;;219.50;212.50;24.30;30.00;;;;;;5089501;28;8756;-70
2021/11/25 12:19:32;;;;;;;;;210.75;201.75;25.00;28.90;;;;;;5084815;28;8744;-70
2021/11/25 12:22:16;;;;;;;;;205.75;197.50;24.70;28.50;;;;;;5088851;28;8776;-71
2021/11/25 12:24:51;;;;;;;;;190.50;187.50;23.10;30.00;;;;;;5089419;28;8749;-71
2021/11/25 12:27:27;;;;;;;;;205.25;197.50;21.90;31.80;;;;;;5087800;28;8749;-71
2021/11/25 12:30:13;;;;;;;;;212.25;202.00;21.90;32.70;;;;;;5088308;28;8757;-71
2021/11/25 12:32:48;;;;;;;;;228.50;223.25;21.80;33.70;;;;;;5088932;28;8753;-72
2021/11/25 12:38:01;;;;;;;;;223.75;213.25;20.90;33.10;;;;;;5036592;28;9422;-71
2021/11/25 12:40:26;;;;;;;;;225.00;219.25;19.00;35.80;;;;;;5083973;28;8811;-70
2021/11/25 12:42:58;;;;;;;;;220.75;206.75;17.20;39.70;;;;;;5037731;28;8784;-68
2021/11/25 12:45:31;;;;;;;;;213.25;206.25;15.70;43.60;;;;;;5089508;28;8769;-69
2021/11/25 12:48:08;;;;;;;;;204.75;200.75;14.70;47.20;;;;;;5090795;28;8796;-69
2021/11/25 12:50:38;;;;;;;;;230.25;221.75;14.00;49.00;;;;;;5087593;28;8780;-68
2021/11/25 12:53:13;;;;;;;;;224.25;214.75;13.40;51.30;;;;;;5077035;28;8787;-69
2021/11/25 12:55:40;;;;;;;;;228.50;220.50;12.70;54.00;;;;;;5078136;28;9454;-72
2021/11/25 12:58:07;;;;;;;;;221.75;206.75;12.10;57.20;;;;;;5088869;28;8911;-68
2021/11/25 13:00:37;;;;;;;;;226.50;215.50;12.00;56.50;;;;;;5082716;28;8787;-70
2021/11/25 13:03:06;;;;;;;;;237.25;227.75;12.00;56.80;;;;;;5076219;28;8791;-63
2021/11/25 13:05:33;;;;;;;;;195.50;185.25;12.70;55.10;;;;;;5075058;28;8859;-60
2021/11/25 13:08:01;;;;;;;;;208.50;196.50;12.60;55.60;;;;;;5057385;28;8830;-61